Time;durP1;ratioP1;P1;durP2;ratioP2;P2;SDS_P1;SDS_P2;PMS_P1;PMS_P2;Temp;Humidity;BMP_temperature;BMP_pressure;BME280_temperature;BME280_humidity;BME280_pressure;Samples;Min_cycle;Max_cycle;Signal;HPM_P1;HPM_P2
2023/10/24 00:01:30;;;;;;;1.30;1.20;;;20.40;61.30;;;;;;5020967;28;20068;-39
2023/10/24 00:03:56;;;;;;;;;;;20.30;61.30;;;;;;5021056;28;20041;-38
2023/10/24 00:06:22;;;;;;;1.45;1.15;;;20.30;61.20;;;;;;5039779;28;19912;-39
2023/10/24 00:08:48;;;;;;;1.10;1.00;;;20.30;61.20;;;;;;5094554;28;20028;-39
2023/10/24 00:11:14;;;;;;;1.33;0.98;;;20.30;61.10;;;;;;5089497;28;20084;-39
2023/10/24 00:13:40;;;;;;;1.65;1.00;;;20.30;61.20;;;;;;5084170;28;20508;-39
2023/10/24 00:16:06;;;;;;;1.00;0.90;;;20.30;61.20;;;;;;5098213;28;20041;-39
2023/10/24 00:18:33;;;;;;;1.13;0.80;;;20.30;61.20;;;;;;5098401;28;20036;-39
2023/10/24 00:20:59;;;;;;;0.90;0.90;;;20.30;61.30;;;;;;5087863;28;20036;-38
2023/10/24 00:23:25;;;;;;;1.23;0.90;;;20.20;61.20;;;;;;5084366;28;20495;-38
2023/10/24 00:25:51;;;;;;;1.17;1.00;;;20.20;61.20;;;;;;5090264;28;20126;-39
2023/10/24 00:28:18;;;;;;;1.20;0.93;;;20.20;61.20;;;;;;5072801;28;20405;-39
2023/10/24 00:30:44;;;;;;;2.03;1.00;;;20.20;61.30;;;;;;5091327;28;20069;-38
2023/10/24 00:33:10;;;;;;;1.10;0.93;;;20.20;61.30;;;;;;5094089;28;20027;-38
2023/10/24 00:35:36;;;;;;;1.00;1.00;;;20.20;61.30;;;;;;5089074;28;20029;-38
2023/10/24 00:38:02;;;;;;;1.17;1.08;;;20.20;61.40;;;;;;5098145;28;20033;-39
2023/10/24 00:40:28;;;;;;;1.15;1.00;;;20.20;61.30;;;;;;5090860;28;20028;-39
2023/10/24 00:42:54;;;;;;;1.10;1.00;;;20.10;61.30;;;;;;5099118;28;20048;-39
2023/10/24 00:45:20;;;;;;;0.82;0.77;;;20.10;61.40;;;;;;5101495;28;20040;-39
2023/10/24 00:47:47;;;;;;;1.67;0.90;;;20.10;61.40;;;;;;5100463;28;20020;-39
2023/10/24 00:50:13;;;;;;;1.48;1.02;;;20.10;61.50;;;;;;5100595;28;20035;-39
2023/10/24 00:52:39;;;;;;;1.25;1.00;;;20.10;61.50;;;;;;5097389;28;20560;-39
2023/10/24 00:55:07;;;;;;;1.43;1.03;;;20.10;61.40;;;;;;5076297;28;20036;-40
2023/10/24 00:57:33;;;;;;;2.05;1.10;;;20.10;61.50;;;;;;5086607;28;20039;-38
2023/10/24 01:00:00;;;;;;;1.13;1.00;;;20.00;61.40;;;;;;5089726;28;20040;-39
2023/10/24 01:02:26;;;;;;;1.30;1.20;;;20.00;61.40;;;;;;5083512;28;20051;-38
2023/10/24 01:04:54;;;;;;;1.40;1.20;;;20.00;61.40;;;;;;5093091;28;20276;-39
2023/10/24 01:07:20;;;;;;;1.17;1.08;;;20.00;61.50;;;;;;5096957;28;20392;-39
2023/10/24 01:09:47;;;;;;;1.37;1.03;;;20.00;61.50;;;;;;5099288;28;20038;-38
2023/10/24 01:12:13;;;;;;;1.20;1.10;;;20.00;61.60;;;;;;5087947;28;20039;-39
2023/10/24 01:14:40;;;;;;;1.63;1.20;;;19.90;61.50;;;;;;5100092;28;20028;-38
2023/10/24 01:17:13;;;;;;;1.10;1.00;;;19.90;61.50;;;;;;5094447;28;20091;-38
2023/10/24 01:19:39;;;;;;;1.30;1.20;;;19.90;61.60;;;;;;5099841;28;20070;-38
2023/10/24 01:22:05;;;;;;;1.10;1.00;;;19.90;61.60;;;;;;5097451;28;20027;-38
2023/10/24 01:24:32;;;;;;;1.20;1.00;;;19.90;61.70;;;;;;5094410;28;20036;-38
2023/10/24 01:26:58;;;;;;;1.92;1.10;;;19.90;61.70;;;;;;5104244;28;20691;-38
2023/10/24 01:29:25;;;;;;;1.40;1.02;;;19.90;61.80;;;;;;5092316;28;20086;-39
2023/10/24 01:31:51;;;;;;;1.45;1.10;;;19.90;61.80;;;;;;5089952;28;20050;-39
2023/10/24 01:34:17;;;;;;;1.67;1.10;;;19.80;62.50;;;;;;5099497;28;20047;-39
2023/10/24 01:36:43;;;;;;;1.40;1.17;;;19.80;61.90;;;;;;5101956;28;20091;-39
2023/10/24 01:39:11;;;;;;;1.55;1.10;;;19.80;61.90;;;;;;5104480;28;20404;-39
2023/10/24 01:41:37;;;;;;;1.90;1.10;;;19.80;61.90;;;;;;5104039;28;20048;-39
2023/10/24 01:44:03;;;;;;;1.20;1.08;;;19.80;61.90;;;;;;5104015;28;20477;-39
2023/10/24 01:46:30;;;;;;;1.73;1.30;;;19.80;61.90;;;;;;5098012;28;20043;-39
2023/10/24 01:48:56;;;;;;;1.30;1.00;;;19.70;61.90;;;;;;5096712;28;20148;-39
2023/10/24 01:51:22;;;;;;;1.15;1.08;;;19.70;62.00;;;;;;5103563;28;20022;-39
2023/10/24 01:53:48;;;;;;;1.30;1.20;;;19.70;62.00;;;;;;5098291;28;20039;-39
2023/10/24 01:56:14;;;;;;;1.42;1.20;;;19.70;62.10;;;;;;5099644;28;20556;-39
2023/10/24 01:58:40;;;;;;;1.95;1.08;;;19.70;62.10;;;;;;5092932;28;20039;-38
2023/10/24 02:01:07;;;;;;;1.95;1.10;;;19.70;62.10;;;;;;5104316;28;20046;-38
2023/10/24 02:03:33;;;;;;;1.20;1.10;;;19.70;62.20;;;;;;5096654;28;20028;-39
2023/10/24 02:06:00;;;;;;;1.40;1.20;;;19.60;62.20;;;;;;5096542;28;20033;-39
2023/10/24 02:08:26;;;;;;;1.17;1.08;;;19.60;62.20;;;;;;5096441;28;20385;-38
2023/10/24 02:10:52;;;;;;;1.50;1.23;;;19.60;62.20;;;;;;5102745;28;20032;-39
2023/10/24 02:13:18;;;;;;;1.30;1.20;;;19.60;62.30;;;;;;5093479;28;20020;-39
2023/10/24 02:15:44;;;;;;;1.27;1.17;;;19.60;62.30;;;;;;5094707;28;20032;-39
2023/10/24 02:18:11;;;;;;;1.30;1.20;;;19.50;62.30;;;;;;5100496;28;20090;-39
2023/10/24 02:20:40;;;;;;;2.25;1.58;;;19.50;62.40;;;;;;5097123;28;20039;-39
2023/10/24 02:23:06;;;;;;;2.17;1.30;;;19.50;62.40;;;;;;5096843;28;20024;-39
2023/10/24 02:25:36;;;;;;;1.40;1.30;;;19.50;62.40;;;;;;5104513;28;20039;-39
2023/10/24 02:28:03;;;;;;;1.35;1.08;;;19.50;62.50;;;;;;5082200;28;20084;-39
2023/10/24 02:30:29;;;;;;;1.70;1.20;;;19.50;62.60;;;;;;5100047;28;20027;-39
2023/10/24 02:33:00;;;;;;;1.35;1.20;;;19.50;62.60;;;;;;5094411;28;20031;-39
2023/10/24 02:35:29;;;;;;;1.40;1.30;;;19.40;62.60;;;;;;5100980;28;20031;-39
2023/10/24 02:37:55;;;;;;;1.27;1.10;;;19.40;62.60;;;;;;5102612;28;20501;-39
2023/10/24 02:40:21;;;;;;;1.50;1.40;;;19.40;62.60;;;;;;5104013;28;20047;-39
2023/10/24 02:42:47;;;;;;;1.35;1.23;;;19.40;62.70;;;;;;5102617;28;20052;-39
2023/10/24 02:45:14;;;;;;;1.30;1.20;;;19.40;62.70;;;;;;5104217;28;20061;-39
2023/10/24 02:47:40;;;;;;;1.52;1.33;;;19.40;62.80;;;;;;5102874;28;20048;-39
2023/10/24 02:50:07;;;;;;;1.45;1.20;;;19.40;62.80;;;;;;5104265;28;20034;-39
2023/10/24 02:52:33;;;;;;;1.65;1.40;;;19.30;62.80;;;;;;5093713;28;20084;-39
2023/10/24 02:55:00;;;;;;;1.52;1.30;;;19.30;62.80;;;;;;5096634;28;20038;-39
2023/10/24 02:57:27;;;;;;;1.10;1.00;;;19.30;62.90;;;;;;5089950;28;20025;-39
2023/10/24 02:59:53;;;;;;;1.50;1.33;;;19.30;63.00;;;;;;5100331;28;20108;-39
2023/10/24 03:02:20;;;;;;;1.58;1.33;;;19.20;62.90;;;;;;5093553;28;20033;-39
2023/10/24 03:04:46;;;;;;;2.95;1.33;;;19.20;63.00;;;;;;5098184;28;20090;-39
2023/10/24 03:07:12;;;;;;;1.48;1.38;;;19.20;63.00;;;;;;5096445;28;20039;-39
2023/10/24 03:09:38;;;;;;;1.92;1.67;;;19.20;63.00;;;;;;5088994;28;20056;-39
2023/10/24 03:12:09;;;;;;;2.63;1.40;;;19.20;63.00;;;;;;5086920;28;20035;-39
2023/10/24 03:14:36;;;;;;;2.10;1.40;;;19.20;63.10;;;;;;5092751;28;20028;-39
2023/10/24 03:17:02;;;;;;;2.47;1.40;;;19.20;63.10;;;;;;5102857;28;20119;-39
2023/10/24 03:19:28;;;;;;;1.65;1.55;;;19.10;63.20;;;;;;5096657;28;20044;-39
2023/10/24 03:21:55;;;;;;;2.10;1.48;;;19.10;63.20;;;;;;5088146;28;20029;-39
2023/10/24 03:24:21;;;;;;;1.80;1.40;;;19.10;63.30;;;;;;5090114;28;20054;-39
2023/10/24 03:26:47;;;;;;;2.53;1.40;;;19.10;63.30;;;;;;5087220;28;20082;-39
2023/10/24 03:29:13;;;;;;;1.52;1.42;;;19.10;63.30;;;;;;5096533;28;20040;-40
2023/10/24 03:31:39;;;;;;;1.90;1.48;;;19.00;63.30;;;;;;5094070;28;20035;-39
2023/10/24 03:34:06;;;;;;;1.50;1.40;;;19.10;63.40;;;;;;5090727;28;20039;-40
2023/10/24 03:36:32;;;;;;;1.60;1.50;;;19.00;63.40;;;;;;5094272;28;20051;-39
2023/10/24 03:38:59;;;;;;;1.65;1.50;;;19.00;63.50;;;;;;5088331;28;20067;-39
2023/10/24 03:41:25;;;;;;;1.88;1.70;;;19.00;63.40;;;;;;5103468;28;20074;-39
2023/10/24 03:43:51;;;;;;;2.92;1.67;;;19.00;63.50;;;;;;5094260;28;20508;-38
2023/10/24 03:46:18;;;;;;;2.67;1.65;;;19.00;63.50;;;;;;5097398;28;20036;-38
2023/10/24 03:48:44;;;;;;;1.67;1.58;;;19.00;63.60;;;;;;5095515;28;20119;-38
2023/10/24 03:51:10;;;;;;;2.67;1.45;;;19.00;63.60;;;;;;5084631;28;20032;-38
2023/10/24 03:53:37;;;;;;;2.30;1.77;;;18.90;63.50;;;;;;5084249;28;20031;-39
2023/10/24 03:56:03;;;;;;;1.60;1.50;;;18.90;63.60;;;;;;5094722;28;20102;-38
2023/10/24 03:58:29;;;;;;;2.00;1.70;;;18.90;63.60;;;;;;5097961;28;20044;-39
2023/10/24 04:00:55;;;;;;;1.77;1.67;;;18.90;63.60;;;;;;5087389;28;20288;-39
2023/10/24 04:03:21;;;;;;;1.60;1.50;;;18.90;64.40;;;;;;5091033;28;20074;-39
2023/10/24 04:05:48;;;;;;;2.42;2.00;;;18.90;63.70;;;;;;5093754;28;20040;-38
2023/10/24 04:08:14;;;;;;;1.90;1.70;;;18.90;63.80;;;;;;5084790;28;20032;-39
2023/10/24 04:10:40;;;;;;;2.42;1.85;;;18.80;63.80;;;;;;5090928;28;20508;-39
2023/10/24 04:13:06;;;;;;;1.92;1.60;;;18.80;63.80;;;;;;5090798;28;20032;-40
2023/10/24 04:15:32;;;;;;;1.85;1.40;;;18.80;63.90;;;;;;5095398;28;20503;-39
2023/10/24 04:17:58;;;;;;;2.40;1.70;;;18.80;63.90;;;;;;5095128;28;20478;-39
2023/10/24 04:20:24;;;;;;;3.28;1.80;;;18.80;63.90;;;;;;5092476;28;20213;-39
2023/10/24 04:22:52;;;;;;;1.90;1.70;;;18.80;63.90;;;;;;5092648;28;20029;-39
2023/10/24 04:25:18;;;;;;;2.40;1.70;;;18.80;63.90;;;;;;5094433;28;20035;-39
2023/10/24 04:27:44;;;;;;;2.10;1.90;;;18.70;64.40;;;;;;5087049;28;20029;-39
2023/10/24 04:30:11;;;;;;;1.88;1.70;;;18.70;63.90;;;;;;5090336;28;20393;-40
2023/10/24 04:32:37;;;;;;;2.30;1.90;;;18.70;63.90;;;;;;5092531;28;20060;-40
2023/10/24 04:35:05;;;;;;;2.65;1.88;;;18.70;64.00;;;;;;5087834;28;20285;-40
2023/10/24 04:37:31;;;;;;;2.03;1.70;;;18.70;64.00;;;;;;5090614;28;20036;-40
2023/10/24 04:39:57;;;;;;;2.80;1.90;;;18.70;64.10;;;;;;5085342;28;20570;-39
2023/10/24 04:42:23;;;;;;;3.40;1.95;;;18.70;64.10;;;;;;5083503;28;20048;-40
2023/10/24 04:44:50;;;;;;;2.30;1.92;;;18.60;64.10;;;;;;5098290;28;20044;-40
2023/10/24 04:47:16;;;;;;;4.55;1.98;;;18.60;64.10;;;;;;5089636;28;20024;-40
2023/10/24 04:49:42;;;;;;;3.03;1.90;;;18.60;64.10;;;;;;5101947;28;20028;-41
2023/10/24 04:52:08;;;;;;;4.55;2.13;;;18.60;64.80;;;;;;5087349;28;20064;-40
2023/10/24 04:54:34;;;;;;;3.28;2.22;;;18.60;64.20;;;;;;5083861;28;20032;-40
2023/10/24 04:57:00;;;;;;;2.67;1.80;;;18.60;64.20;;;;;;5083026;28;20116;-39
2023/10/24 04:59:27;;;;;;;3.80;2.10;;;18.50;64.20;;;;;;5089603;28;20431;-40
2023/10/24 05:01:53;;;;;;;4.80;2.13;;;18.50;64.20;;;;;;5093400;28;20033;-40
2023/10/24 05:04:19;;;;;;;3.78;1.80;;;18.50;64.20;;;;;;5090344;28;20043;-40
2023/10/24 05:06:46;;;;;;;3.35;1.90;;;18.50;64.20;;;;;;5085418;28;20024;-39
2023/10/24 05:09:15;;;;;;;3.55;2.17;;;18.50;64.20;;;;;;5093110;28;20039;-39
2023/10/24 05:11:41;;;;;;;2.63;2.10;;;18.50;64.30;;;;;;5090308;28;20024;-40
2023/10/24 05:14:08;;;;;;;3.33;2.23;;;18.50;64.30;;;;;;5094412;28;20027;-39
2023/10/24 05:16:34;;;;;;;2.55;2.03;;;18.50;64.40;;;;;;5094070;28;20028;-40
2023/10/24 05:19:00;;;;;;;2.85;2.20;;;18.50;64.40;;;;;;5091321;28;20063;-40
2023/10/24 05:21:26;;;;;;;2.33;2.10;;;18.50;64.40;;;;;;5087228;28;20024;-39
2023/10/24 05:23:52;;;;;;;4.88;2.20;;;18.40;64.40;;;;;;5085301;28;20040;-39
2023/10/24 05:26:18;;;;;;;5.00;1.92;;;18.40;64.40;;;;;;5090451;28;20097;-40
2023/10/24 05:28:45;;;;;;;2.65;1.80;;;18.40;64.50;;;;;;5091582;28;20524;-40
2023/10/24 05:31:11;;;;;;;3.00;2.15;;;18.40;64.50;;;;;;5067032;28;20054;-40
2023/10/24 05:33:38;;;;;;;2.90;1.92;;;18.40;64.50;;;;;;5089674;28;20506;-40
2023/10/24 05:36:05;;;;;;;4.22;2.40;;;18.30;64.50;;;;;;5098668;28;20043;-40
2023/10/24 05:38:32;;;;;;;3.00;2.10;;;18.30;64.50;;;;;;5093959;28;20063;-40
2023/10/24 05:41:00;;;;;;;3.58;2.25;;;18.30;64.60;;;;;;5092058;28;20284;-40
2023/10/24 05:43:26;;;;;;;2.45;2.20;;;18.30;64.50;;;;;;5089484;28;20056;-40
2023/10/24 05:45:52;;;;;;;2.53;1.90;;;18.30;64.60;;;;;;5091734;28;20058;-40
2023/10/24 05:48:18;;;;;;;2.67;2.05;;;18.30;64.60;;;;;;5095905;28;20027;-40
2023/10/24 05:50:44;;;;;;;2.63;1.85;;;18.30;64.60;;;;;;5092864;28;20179;-40
2023/10/24 05:53:11;;;;;;;2.00;1.80;;;18.30;64.60;;;;;;5075992;28;20032;-39
2023/10/24 05:55:38;;;;;;;2.72;2.38;;;18.20;64.60;;;;;;5096510;28;20028;-40
2023/10/24 05:58:04;;;;;;;3.33;2.00;;;18.20;64.60;;;;;;5097737;28;20033;-39
2023/10/24 06:00:31;;;;;;;4.00;2.17;;;18.20;64.60;;;;;;5082986;28;20036;-39
2023/10/24 06:02:57;;;;;;;4.07;2.33;;;18.20;64.60;;;;;;5099447;28;20108;-39
2023/10/24 06:05:23;;;;;;;2.25;2.05;;;18.20;64.70;;;;;;5098409;28;20028;-39
2023/10/24 06:07:49;;;;;;;2.72;2.17;;;18.20;64.80;;;;;;5091493;28;20024;-39
2023/10/24 06:10:15;;;;;;;2.10;1.85;;;18.20;64.70;;;;;;5089043;28;20379;-40
2023/10/24 06:12:41;;;;;;;2.85;2.05;;;18.20;64.70;;;;;;5092396;28;20032;-40
2023/10/24 06:15:08;;;;;;;2.58;2.20;;;18.20;64.70;;;;;;5095911;28;20029;-41
2023/10/24 06:17:35;;;;;;;2.28;2.05;;;18.10;64.70;;;;;;5100551;28;20040;-40
2023/10/24 06:20:01;;;;;;;3.15;2.28;;;18.10;64.70;;;;;;5097134;28;20130;-40
2023/10/24 06:22:31;;;;;;;3.15;2.38;;;18.10;64.80;;;;;;5087374;28;20033;-40
2023/10/24 06:25:00;;;;;;;3.10;2.30;;;18.10;64.80;;;;;;5103274;28;20036;-40
2023/10/24 06:27:27;;;;;;;3.55;2.30;;;18.10;64.90;;;;;;5104266;28;20107;-40
2023/10/24 06:29:53;;;;;;;2.63;2.20;;;18.10;64.90;;;;;;5086967;28;20092;-40
2023/10/24 06:32:19;;;;;;;2.28;2.08;;;18.10;64.90;;;;;;5091647;28;20951;-40
2023/10/24 06:34:45;;;;;;;3.10;2.10;;;18.00;64.90;;;;;;5097054;28;20024;-40
2023/10/24 06:37:11;;;;;;;2.60;2.33;;;18.00;64.90;;;;;;5093740;28;20039;-40
2023/10/24 06:39:38;;;;;;;2.30;2.10;;;18.00;64.90;;;;;;5099841;28;20052;-40
2023/10/24 06:42:04;;;;;;;4.53;2.45;;;18.00;65.60;;;;;;5099257;28;20144;-40
2023/10/24 06:44:31;;;;;;;3.58;2.50;;;18.00;64.90;;;;;;5100329;28;20052;-40
2023/10/24 06:46:57;;;;;;;4.28;2.33;;;18.00;64.90;;;;;;5095965;28;20048;-40
2023/10/24 06:49:23;;;;;;;4.13;2.35;;;18.00;65.00;;;;;;5104335;28;20055;-40
2023/10/24 06:51:50;;;;;;;2.75;2.00;;;18.00;65.00;;;;;;5098556;28;20050;-40
2023/10/24 06:54:16;;;;;;;3.47;2.65;;;17.90;65.00;;;;;;5091501;28;20096;-40
2023/10/24 06:56:43;;;;;;;2.17;1.98;;;17.90;65.10;;;;;;5103200;28;20035;-40
2023/10/24 06:59:09;;;;;;;3.05;2.20;;;17.90;65.00;;;;;;5099805;28;20047;-40
2023/10/24 07:01:35;;;;;;;3.53;2.17;;;17.90;65.10;;;;;;5100488;28;20028;-40
2023/10/24 07:04:01;;;;;;;3.33;2.65;;;17.90;65.10;;;;;;5103054;28;20036;-40
2023/10/24 07:06:27;;;;;;;4.00;2.40;;;17.90;65.10;;;;;;5101040;28;20032;-39
2023/10/24 07:08:53;;;;;;;2.97;2.15;;;17.90;65.20;;;;;;5101711;28;21578;-39
2023/10/24 07:11:19;;;;;;;3.60;2.50;;;17.90;65.10;;;;;;5091274;28;20092;-40
2023/10/24 07:13:45;;;;;;;2.85;2.38;;;17.80;65.80;;;;;;5102129;28;20043;-39
2023/10/24 07:16:15;;;;;;;3.03;2.35;;;17.80;65.20;;;;;;5093295;28;20028;-39
2023/10/24 07:18:42;;;;;;;2.50;2.30;;;17.80;65.20;;;;;;5092796;28;20040;-40
2023/10/24 07:21:08;;;;;;;3.45;1.85;;;17.80;65.20;;;;;;5089472;28;20055;-43
2023/10/24 07:23:34;;;;;;;2.45;2.10;;;17.80;65.20;;;;;;5098397;28;20062;-39
2023/10/24 07:26:00;;;;;;;2.47;2.15;;;17.80;65.30;;;;;;5074333;28;20026;-39
2023/10/24 07:28:26;;;;;;;3.95;2.28;;;17.80;65.30;;;;;;5086959;28;20028;-40
2023/10/24 07:30:54;;;;;;;2.38;2.10;;;17.80;65.30;;;;;;5092992;28;20481;-40
2023/10/24 07:33:21;;;;;;;3.25;2.10;;;17.80;65.30;;;;;;5084563;28;20047;-40
2023/10/24 07:35:50;;;;;;;4.35;2.70;;;17.80;65.40;;;;;;5087553;28;20032;-40
2023/10/24 07:38:20;;;;;;;3.10;2.33;;;17.80;65.40;;;;;;5097939;28;20181;-40
2023/10/24 07:40:47;;;;;;;2.88;2.15;;;17.70;65.40;;;;;;5093252;28;20035;-40
2023/10/24 07:43:14;;;;;;;4.00;2.20;;;17.70;65.40;;;;;;5095854;28;20121;-40
2023/10/24 07:45:40;;;;;;;3.20;2.45;;;17.70;65.40;;;;;;5100890;28;20050;-40
2023/10/24 07:48:06;;;;;;;1.70;1.48;;;17.70;65.40;;;;;;5085277;28;20028;-39
2023/10/24 07:50:33;;;;;;;2.70;2.40;;;17.70;65.40;;;;;;5097340;28;20031;-40
2023/10/24 07:52:59;;;;;;;2.60;2.33;;;17.60;65.50;;;;;;5094043;28;20801;-40
2023/10/24 07:55:25;;;;;;;3.78;2.50;;;17.60;65.50;;;;;;5090184;28;20052;-40
2023/10/24 07:57:54;;;;;;;3.03;2.40;;;17.70;65.60;;;;;;5085522;28;20029;-40
2023/10/24 08:00:20;;;;;;;2.50;2.30;;;17.60;65.50;;;;;;5087303;28;20047;-39
2023/10/24 08:02:46;;;;;;;2.25;2.05;;;17.60;65.90;;;;;;5083928;28;20044;-40
2023/10/24 08:05:12;;;;;;;2.75;2.00;;;17.70;66.20;;;;;;5095144;28;20062;-39
2023/10/24 08:07:38;;;;;;;2.38;1.95;;;17.70;66.30;;;;;;5093978;28;20036;-39
2023/10/24 08:10:05;;;;;;;3.25;2.00;;;17.70;66.90;;;;;;5094501;28;20032;-39
2023/10/24 08:12:31;;;;;;;3.25;2.05;;;17.70;66.10;;;;;;5087983;28;20036;-40
2023/10/24 08:14:57;;;;;;;2.45;2.08;;;17.70;66.20;;;;;;5094730;28;20039;-40
2023/10/24 08:17:23;;;;;;;2.70;2.00;;;17.60;66.10;;;;;;5091346;28;20423;-40
2023/10/24 08:19:49;;;;;;;3.63;2.33;;;17.60;66.20;;;;;;5095267;28;20043;-40
2023/10/24 08:22:15;;;;;;;2.28;2.05;;;17.60;66.20;;;;;;5085795;28;20807;-39
2023/10/24 08:24:42;;;;;;;3.33;2.08;;;17.60;66.20;;;;;;5093197;28;20037;-40
2023/10/24 08:27:08;;;;;;;3.87;2.00;;;17.70;66.40;;;;;;5104059;28;20115;-40
2023/10/24 08:29:34;;;;;;;2.13;1.63;;;17.70;66.70;;;;;;5098069;28;20051;-40
2023/10/24 08:32:00;;;;;;;2.47;1.92;;;17.70;66.70;;;;;;5092033;28;20027;-39
2023/10/24 08:34:26;;;;;;;2.15;1.83;;;17.70;66.50;;;;;;5091953;28;20024;-40
2023/10/24 08:36:53;;;;;;;2.47;2.00;;;17.70;66.40;;;;;;5094456;28;20036;-39
2023/10/24 08:39:19;;;;;;;2.05;1.75;;;17.70;66.60;;;;;;5089555;28;20080;-39
2023/10/24 08:41:47;;;;;;;1.90;1.75;;;17.70;66.50;;;;;;5083462;28;20055;-40
2023/10/24 08:44:13;;;;;;;4.30;2.15;;;17.60;66.40;;;;;;5083316;28;20032;-40
2023/10/24 08:46:39;;;;;;;3.83;1.90;;;17.60;66.40;;;;;;5089931;28;20055;-40
2023/10/24 08:49:05;;;;;;;2.30;1.70;;;17.60;66.40;;;;;;5091565;28;20137;-40
2023/10/24 08:51:32;;;;;;;1.60;1.50;;;17.60;66.60;;;;;;5084430;28;20033;-40
2023/10/24 08:53:58;;;;;;;2.20;1.75;;;17.70;66.90;;;;;;5083933;28;20028;-40
2023/10/24 08:56:24;;;;;;;1.83;1.50;;;17.70;67.10;;;;;;5083374;28;20043;-40
2023/10/24 08:58:51;;;;;;;2.23;1.50;;;17.70;66.70;;;;;;5074439;28;20040;-40
2023/10/24 09:01:17;;;;;;;1.65;1.50;;;17.70;66.70;;;;;;5078404;28;20024;-40
2023/10/24 09:03:43;;;;;;;1.63;1.52;;;17.70;66.70;;;;;;5079141;28;20032;-40
2023/10/24 09:06:09;;;;;;;2.50;1.80;;;17.70;66.80;;;;;;5093823;28;20047;-39
2023/10/24 09:08:35;;;;;;;1.92;1.73;;;17.70;66.80;;;;;;5100395;28;20028;-39
2023/10/24 09:11:01;;;;;;;2.55;1.70;;;17.70;67.40;;;;;;5073165;28;20111;-40
2023/10/24 09:13:28;;;;;;;2.13;1.75;;;17.60;66.60;;;;;;5083473;28;20024;-40
2023/10/24 09:16:07;;;;;;;2.45;1.73;;;17.70;66.70;;;;;;5083379;28;20043;-42
2023/10/24 09:18:40;;;;;;;2.08;1.80;;;17.60;66.60;;;;;;5083906;28;20033;-40
2023/10/24 09:21:07;;;;;;;1.52;1.40;;;17.60;67.40;;;;;;5088159;28;20409;-40
2023/10/24 09:23:35;;;;;;;1.50;1.40;;;17.70;67.00;;;;;;5083303;28;20031;-40
2023/10/24 09:26:11;;;;;;;2.00;1.80;;;17.70;67.20;;;;;;5086276;28;20052;-39
2023/10/24 09:28:37;;;;;;;2.50;1.80;;;17.80;67.00;;;;;;5089948;28;20415;-40
2023/10/24 09:31:04;;;;;;;2.03;1.55;;;17.80;66.90;;;;;;5083151;28;20110;-40
2023/10/24 09:33:32;;;;;;;1.60;1.45;;;17.70;66.80;;;;;;5084483;28;20044;-40
2023/10/24 09:35:58;;;;;;;2.38;1.50;;;17.70;66.90;;;;;;5086478;28;20037;-40
2023/10/24 09:38:25;;;;;;;1.80;1.60;;;17.70;66.90;;;;;;5089213;28;20500;-40
2023/10/24 09:40:54;;;;;;;1.50;1.40;;;17.70;66.90;;;;;;5090662;28;20055;-39
2023/10/24 09:43:23;;;;;;;2.42;1.55;;;17.70;66.90;;;;;;5088777;28;20040;-39
2023/10/24 09:45:51;;;;;;;1.77;1.63;;;17.60;66.80;;;;;;5092640;28;20850;-40
2023/10/24 09:48:17;;;;;;;1.67;1.30;;;17.60;66.80;;;;;;5100239;28;20043;-39
2023/10/24 09:50:44;;;;;;;2.00;1.70;;;17.70;66.80;;;;;;5091204;28;20050;-40
2023/10/24 09:53:10;;;;;;;1.67;1.42;;;17.70;67.00;;;;;;5093743;28;20036;-40
2023/10/24 09:55:48;;;;;;;1.85;1.40;;;17.70;67.20;;;;;;5094794;28;20017;-39
2023/10/24 09:58:15;;;;;;;1.45;1.35;;;17.80;67.00;;;;;;5097259;28;20091;-39
2023/10/24 10:00:42;;;;;;;1.60;1.50;;;17.80;67.00;;;;;;5069697;28;20036;-39
2023/10/24 10:03:09;;;;;;;1.90;1.40;;;17.70;66.90;;;;;;5101547;28;20062;-40
2023/10/24 10:05:35;;;;;;;;;;;17.70;66.90;;;;;;5079696;28;20373;-39
2023/10/24 10:08:02;;;;;;;1.85;1.52;;;17.70;66.90;;;;;;5094526;28;20392;-39
2023/10/24 10:10:29;;;;;;;1.90;1.52;;;17.70;67.00;;;;;;5085776;28;20468;-40
2023/10/24 10:13:02;;;;;;;1.88;1.38;;;17.60;66.90;;;;;;5093180;28;20025;-39
2023/10/24 10:16:07;;;;;;;1.83;1.58;;;17.60;66.90;;;;;;5053086;28;20044;-40
2023/10/24 10:18:54;;;;;;;1.40;1.30;;;17.60;66.90;;;;;;5087918;28;20076;-40
2023/10/24 10:21:35;;;;;;;1.80;1.55;;;17.70;67.20;;;;;;5095582;28;20030;-40
2023/10/24 10:24:31;;;;;;;1.50;1.40;;;17.80;67.20;;;;;;5087560;28;20024;-40
2023/10/24 10:27:38;;;;;;;1.40;1.27;;;17.80;67.00;;;;;;5079607;28;20040;-40
2023/10/24 10:30:31;;;;;;;2.75;1.85;;;17.80;67.00;;;;;;5085796;28;20485;-40
2023/10/24 10:33:16;;;;;;;1.88;1.50;;;17.70;66.90;;;;;;5103654;28;20056;-39
2023/10/24 10:35:50;;;;;;;1.83;1.60;;;17.70;67.00;;;;;;5102540;28;20469;-40
2023/10/24 10:38:38;;;;;;;2.00;1.50;;;17.70;67.00;;;;;;5104177;28;20036;-40
2023/10/24 10:41:26;;;;;;;1.90;1.50;;;17.70;67.00;;;;;;5096867;28;20495;-40
2023/10/24 10:43:59;;;;;;;1.10;1.00;;;17.60;66.90;;;;;;5081561;28;20052;-40
2023/10/24 10:46:27;;;;;;;1.38;1.23;;;17.60;67.00;;;;;;5093799;28;20149;-40
2023/10/24 10:48:56;;;;;;;;;;;17.70;67.20;;;;;;5095659;28;20055;-40
2023/10/24 10:51:26;;;;;;;1.85;1.27;;;17.80;67.30;;;;;;5099790;28;19954;-40
2023/10/24 10:54:00;;;;;;;1.42;1.30;;;17.80;67.10;;;;;;5069183;28;20055;-40
2023/10/24 10:56:30;;;;;;;1.83;1.45;;;17.80;67.00;;;;;;5091973;28;20028;-40
2023/10/24 10:59:13;;;;;;;1.50;1.40;;;17.80;67.10;;;;;;5071303;28;20689;-39
2023/10/24 11:02:17;;;;;;;1.20;1.10;;;17.70;67.00;;;;;;5086211;28;20438;-40
2023/10/24 11:04:43;;;;;;;1.52;1.40;;;17.70;67.00;;;;;;5092324;28;20067;-39
2023/10/24 11:07:09;;;;;;;1.85;1.55;;;17.70;67.00;;;;;;5097154;28;20032;-39
2023/10/24 11:09:37;;;;;;;1.52;1.40;;;17.70;67.10;;;;;;5078329;28;20032;-40
2023/10/24 11:12:21;;;;;;;1.48;1.20;;;17.60;67.00;;;;;;5095900;28;20028;-39
2023/10/24 11:15:16;;;;;;;1.55;1.40;;;17.70;67.20;;;;;;5101646;28;20040;-39
2023/10/24 11:17:43;;;;;;;1.50;1.40;;;17.80;67.20;;;;;;5098688;28;20031;-39
2023/10/24 11:20:10;;;;;;;1.47;1.20;;;17.80;67.00;;;;;;5092955;28;20049;-39
2023/10/24 11:22:36;;;;;;;1.30;1.20;;;17.80;67.00;;;;;;5103184;28;20020;-40
2023/10/24 11:25:10;;;;;;;1.40;1.30;;;17.80;67.00;;;;;;5102466;28;20039;-39
2023/10/24 11:27:37;;;;;;;1.58;1.48;;;17.70;66.90;;;;;;5088816;28;20024;-39
2023/10/24 11:30:05;;;;;;;1.40;1.30;;;17.70;66.90;;;;;;5092053;28;20025;-39
2023/10/24 11:32:31;;;;;;;1.65;1.30;;;17.70;67.00;;;;;;5070885;28;20058;-39
2023/10/24 11:34:57;;;;;;;2.38;1.27;;;17.70;66.90;;;;;;5090332;28;20036;-40
2023/10/24 11:37:23;;;;;;;1.52;1.20;;;17.60;66.90;;;;;;5098273;28;20028;-40
2023/10/24 11:39:49;;;;;;;1.30;1.20;;;17.70;67.00;;;;;;5102002;28;20043;-40
2023/10/24 11:42:16;;;;;;;1.50;1.20;;;17.70;67.20;;;;;;5095946;28;20095;-40
2023/10/24 11:44:42;;;;;;;1.20;1.10;;;17.80;67.10;;;;;;5101471;28;20088;-39
2023/10/24 11:47:14;;;;;;;1.30;1.20;;;17.80;67.00;;;;;;5099223;28;20037;-39
2023/10/24 11:49:41;;;;;;;2.10;1.25;;;17.80;66.90;;;;;;5092594;28;20039;-39
2023/10/24 11:52:07;;;;;;;1.30;1.20;;;17.80;66.90;;;;;;5099100;28;20426;-39
2023/10/24 11:54:33;;;;;;;1.17;1.08;;;17.70;66.90;;;;;;5077805;28;20035;-40
2023/10/24 11:57:00;;;;;;;2.00;1.50;;;17.70;66.90;;;;;;5095146;28;20027;-39
2023/10/24 11:59:34;;;;;;;1.90;1.60;;;17.70;66.90;;;;;;5099217;28;20646;-40
2023/10/24 12:02:01;;;;;;;1.75;1.40;;;17.60;66.90;;;;;;5095656;28;20047;-40
2023/10/24 12:04:27;;;;;;;1.63;1.30;;;17.70;67.00;;;;;;5082615;28;20362;-40
2023/10/24 12:07:12;;;;;;;1.70;1.20;;;17.80;67.20;;;;;;5100630;28;20032;-40
2023/10/24 12:09:38;;;;;;;2.15;1.27;;;17.80;67.10;;;;;;5090999;28;20051;-40
2023/10/24 12:12:05;;;;;;;1.60;1.30;;;17.80;66.80;;;;;;5077822;28;20028;-40
2023/10/24 12:14:32;;;;;;;1.30;1.10;;;17.80;66.80;;;;;;5077041;28;20055;-40
2023/10/24 12:16:58;;;;;;;;;;;17.80;66.80;;;;;;5084959;28;20043;-40
2023/10/24 12:19:24;;;;;;;1.30;1.20;;;17.80;66.90;;;;;;5089581;28;19919;-40
2023/10/24 12:21:51;;;;;;;2.27;1.40;;;17.70;66.80;;;;;;5089375;28;20063;-41
2023/10/24 12:24:17;;;;;;;1.95;1.17;;;17.70;66.80;;;;;;5096026;28;20173;-40
2023/10/24 12:26:44;;;;;;;1.50;1.30;;;17.70;66.80;;;;;;5100674;28;20087;-40
2023/10/24 12:29:10;;;;;;;1.80;1.40;;;17.70;66.80;;;;;;5098586;28;20682;-41
2023/10/24 12:31:39;;;;;;;2.22;1.50;;;17.70;66.80;;;;;;5101702;28;20688;-40
2023/10/24 12:34:06;;;;;;;2.00;1.33;;;17.70;66.90;;;;;;5098634;28;20028;-41
2023/10/24 12:36:32;;;;;;;1.17;1.00;;;17.80;66.90;;;;;;5101283;28;20062;-40
2023/10/24 12:38:59;;;;;;;2.13;1.27;;;17.80;66.80;;;;;;5098103;28;20565;-40
2023/10/24 12:41:25;;;;;;;2.42;1.25;;;17.80;66.80;;;;;;5084649;28;20040;-40
2023/10/24 12:43:51;;;;;;;1.67;1.20;;;17.80;66.70;;;;;;5099436;28;20036;-40
2023/10/24 12:46:17;;;;;;;1.40;1.27;;;17.70;66.70;;;;;;5090595;28;20056;-41
2023/10/24 12:48:46;;;;;;;1.90;1.55;;;17.70;66.70;;;;;;5066724;28;20080;-40
2023/10/24 12:51:13;;;;;;;1.40;1.30;;;17.70;66.80;;;;;;5097753;28;20427;-40